Weather at Bimini North Seaplane Base

Public forecast

Using degrees Celsius for public forecast. Weather courtesy of forecast.io.

Closest aviation weather report (METAR) to Bimini North Seaplane Base

Closest report is Fort Lauderdale Hollywood International Airport, 52.1 nm (96.5 km) WNW. Retrieved 2020/09/20 18:53 UTC (1 hour ago):

KFLL 201853Z 13010KT 10SM FEW030 SCT060 BKN250 32/26 A2988 RMK AO2 SLP118 CB DSNT SW-W T03220256

Closest aviation forecast (TAF) to Bimini North Seaplane Base

Closest forecast is Fort Lauderdale Hollywood International Airport, 52.1 nm (96.5 km) WNW. Retrieved 2020/09/20 18:31 UTC (1 hour ago):

TAF KFLL 201728Z 2018/2124 12010KT P6SM VCTS SCT025CB BKN050 FM210000 06010KT P6SM VCSH FEW015 SCT025 BKN050 FM210600 06015G25KT P6SM VCTS FEW015 SCT025CB BKN050 FM211400 06020G30KT P6SM VCTS FEW015 SCT025CB BKN050